sensor_id;sensor_type;location;lat;lon;timestamp;pressure;altitude;pressure_sealevel;temperature;humidity
45323;BME280;31382;50.200;8.674;2022-12-07T00:03:06;100455.47;;;6.57;67.17
45323;BME280;31382;50.200;8.674;2022-12-07T00:08:07;100452.06;;;6.64;67.22
45323;BME280;31382;50.200;8.674;2022-12-07T00:13:08;100454.50;;;6.58;67.14
45323;BME280;31382;50.200;8.674;2022-12-07T00:18:10;100447.84;;;6.71;66.97
45323;BME280;31382;50.200;8.674;2022-12-07T00:23:11;100440.75;;;6.80;66.71
45323;BME280;31382;50.200;8.674;2022-12-07T00:28:13;100435.63;;;6.87;66.49
45323;BME280;31382;50.200;8.674;2022-12-07T00:33:14;100426.78;;;6.86;66.99
45323;BME280;31382;50.200;8.674;2022-12-07T00:38:15;100423.97;;;6.88;67.13
45323;BME280;31382;50.200;8.674;2022-12-07T00:43:17;100413.97;;;6.90;67.29
45323;BME280;31382;50.200;8.674;2022-12-07T00:48:18;100416.56;;;6.82;66.96
45323;BME280;31382;50.200;8.674;2022-12-07T00:53:20;100413.03;;;6.81;66.56
45323;BME280;31382;50.200;8.674;2022-12-07T00:58:22;100408.97;;;6.77;67.19
45323;BME280;31382;50.200;8.674;2022-12-07T01:03:23;100408.44;;;6.73;67.58
45323;BME280;31382;50.200;8.674;2022-12-07T01:08:26;100400.50;;;6.64;67.44
45323;BME280;31382;50.200;8.674;2022-12-07T01:13:28;100393.00;;;6.67;67.37
45323;BME280;31382;50.200;8.674;2022-12-07T01:18:31;100393.31;;;6.64;67.46
45323;BME280;31382;50.200;8.674;2022-12-07T01:23:35;100393.38;;;6.54;68.37
45323;BME280;31382;50.200;8.674;2022-12-07T01:28:37;100397.56;;;6.57;67.64
45323;BME280;31382;50.200;8.674;2022-12-07T01:33:39;100401.97;;;6.48;67.59
45323;BME280;31382;50.200;8.674;2022-12-07T01:38:41;100414.78;;;6.45;67.64
45323;BME280;31382;50.200;8.674;2022-12-07T01:49:14;100404.97;;;6.35;68.07
45323;BME280;31382;50.200;8.674;2022-12-07T01:54:17;100399.66;;;6.26;69.06
45323;BME280;31382;50.200;8.674;2022-12-07T01:59:21;100388.16;;;6.25;68.26
45323;BME280;31382;50.200;8.674;2022-12-07T02:04:24;100391.28;;;6.21;69.31
45323;BME280;31382;50.200;8.674;2022-12-07T02:09:25;100373.31;;;6.13;69.25
45323;BME280;31382;50.200;8.674;2022-12-07T02:14:27;100368.81;;;6.13;68.96
45323;BME280;31382;50.200;8.674;2022-12-07T02:25:14;100356.91;;;6.08;69.49
45323;BME280;31382;50.200;8.674;2022-12-07T02:30:25;100361.41;;;6.07;69.48
45323;BME280;31382;50.200;8.674;2022-12-07T02:35:33;100374.19;;;6.04;69.62
45323;BME280;31382;50.200;8.674;2022-12-07T02:45:47;100365.41;;;6.21;68.59
45323;BME280;31382;50.200;8.674;2022-12-07T02:50:51;100355.44;;;6.23;68.15
45323;BME280;31382;50.200;8.674;2022-12-07T02:55:53;100358.56;;;6.19;68.39
45323;BME280;31382;50.200;8.674;2022-12-07T03:01:04;100358.69;;;6.17;69.47
45323;BME280;31382;50.200;8.674;2022-12-07T03:06:23;100357.19;;;6.14;69.28
45323;BME280;31382;50.200;8.674;2022-12-07T03:11:46;100349.84;;;6.17;69.21
45323;BME280;31382;50.200;8.674;2022-12-07T03:17:03;100358.25;;;6.22;68.97
45323;BME280;31382;50.200;8.674;2022-12-07T03:22:09;100341.59;;;6.38;68.16
45323;BME280;31382;50.200;8.674;2022-12-07T03:27:20;100344.03;;;6.31;68.25
45323;BME280;31382;50.200;8.674;2022-12-07T03:32:30;100344.63;;;6.25;68.98
45323;BME280;31382;50.200;8.674;2022-12-07T03:42:58;100347.47;;;6.13;69.44
45323;BME280;31382;50.200;8.674;2022-12-07T03:48:24;100344.41;;;6.08;69.18
45323;BME280;31382;50.200;8.674;2022-12-07T03:53:35;100330.28;;;6.26;69.53
45323;BME280;31382;50.200;8.674;2022-12-07T03:58:39;100329.28;;;6.27;68.87
45323;BME280;31382;50.200;8.674;2022-12-07T04:03:42;100338.88;;;6.20;69.38
45323;BME280;31382;50.200;8.674;2022-12-07T04:08:43;100342.09;;;6.23;69.28
45323;BME280;31382;50.200;8.674;2022-12-07T04:13:44;100329.44;;;6.25;68.95
45323;BME280;31382;50.200;8.674;2022-12-07T04:19:04;100328.56;;;6.34;69.31
45323;BME280;31382;50.200;8.674;2022-12-07T04:24:06;100334.06;;;6.51;68.91
45323;BME280;31382;50.200;8.674;2022-12-07T04:29:08;100325.91;;;6.52;68.97
45323;BME280;31382;50.200;8.674;2022-12-07T04:34:10;100324.16;;;6.61;68.81
45323;BME280;31382;50.200;8.674;2022-12-07T04:39:24;100324.63;;;6.57;68.53
45323;BME280;31382;50.200;8.674;2022-12-07T04:44:27;100326.53;;;6.46;68.82
45323;BME280;31382;50.200;8.674;2022-12-07T04:49:28;100326.13;;;6.41;69.33
45323;BME280;31382;50.200;8.674;2022-12-07T04:54:30;100314.31;;;6.44;69.66
45323;BME280;31382;50.200;8.674;2022-12-07T04:59:31;100303.91;;;6.41;69.22
45323;BME280;31382;50.200;8.674;2022-12-07T05:04:32;100308.25;;;6.42;69.68
45323;BME280;31382;50.200;8.674;2022-12-07T05:09:34;100322.31;;;6.44;69.57
45323;BME280;31382;50.200;8.674;2022-12-07T05:14:35;100324.84;;;6.63;69.59
45323;BME280;31382;50.200;8.674;2022-12-07T05:19:37;100322.34;;;6.62;69.11
45323;BME280;31382;50.200;8.674;2022-12-07T05:24:38;100322.78;;;6.57;69.50
45323;BME280;31382;50.200;8.674;2022-12-07T05:29:39;100322.44;;;6.70;69.91
45323;BME280;31382;50.200;8.674;2022-12-07T05:34:41;100319.00;;;6.78;69.40
45323;BME280;31382;50.200;8.674;2022-12-07T05:39:42;100315.19;;;6.80;69.64
45323;BME280;31382;50.200;8.674;2022-12-07T05:44:45;100311.50;;;6.81;69.48
45323;BME280;31382;50.200;8.674;2022-12-07T05:49:47;100321.06;;;6.84;69.61
45323;BME280;31382;50.200;8.674;2022-12-07T05:54:48;100302.22;;;6.85;69.16
45323;BME280;31382;50.200;8.674;2022-12-07T05:59:50;100309.16;;;6.96;69.21
45323;BME280;31382;50.200;8.674;2022-12-07T06:04:51;100306.31;;;6.98;69.21
45323;BME280;31382;50.200;8.674;2022-12-07T06:09:52;100318.94;;;6.87;69.06
45323;BME280;31382;50.200;8.674;2022-12-07T06:14:54;100313.47;;;6.79;69.68
45323;BME280;31382;50.200;8.674;2022-12-07T06:19:55;100313.88;;;6.84;69.37
45323;BME280;31382;50.200;8.674;2022-12-07T06:24:57;100312.78;;;6.77;69.26
45323;BME280;31382;50.200;8.674;2022-12-07T06:29:58;100314.41;;;6.70;68.90
45323;BME280;31382;50.200;8.674;2022-12-07T06:35:01;100312.78;;;6.77;69.27
45323;BME280;31382;50.200;8.674;2022-12-07T06:40:02;100310.13;;;6.77;69.55
45323;BME280;31382;50.200;8.674;2022-12-07T06:45:04;100316.22;;;6.69;69.22
45323;BME280;31382;50.200;8.674;2022-12-07T06:50:06;100320.38;;;6.64;69.86
45323;BME280;31382;50.200;8.674;2022-12-07T06:55:08;100325.38;;;6.67;69.32
45323;BME280;31382;50.200;8.674;2022-12-07T07:00:10;100332.09;;;6.71;69.04
45323;BME280;31382;50.200;8.674;2022-12-07T07:05:20;100340.19;;;6.79;68.85
45323;BME280;31382;50.200;8.674;2022-12-07T07:10:24;100341.28;;;6.86;68.57
45323;BME280;31382;50.200;8.674;2022-12-07T07:15:25;100336.63;;;6.88;69.39
45323;BME280;31382;50.200;8.674;2022-12-07T07:20:27;100341.97;;;6.88;69.43
45323;BME280;31382;50.200;8.674;2022-12-07T07:25:28;100348.31;;;6.87;69.05
45323;BME280;31382;50.200;8.674;2022-12-07T07:30:30;100337.91;;;6.84;69.44
45323;BME280;31382;50.200;8.674;2022-12-07T07:35:33;100334.63;;;6.90;69.72
45323;BME280;31382;50.200;8.674;2022-12-07T07:40:35;100325.88;;;6.98;69.23
45323;BME280;31382;50.200;8.674;2022-12-07T07:45:36;100335.31;;;6.92;69.61
45323;BME280;31382;50.200;8.674;2022-12-07T07:50:38;100345.25;;;7.00;69.57
45323;BME280;31382;50.200;8.674;2022-12-07T07:55:39;100338.06;;;7.01;69.56
45323;BME280;31382;50.200;8.674;2022-12-07T08:00:41;100339.69;;;6.93;69.37
45323;BME280;31382;50.200;8.674;2022-12-07T08:05:42;100352.38;;;6.91;70.02
45323;BME280;31382;50.200;8.674;2022-12-07T08:10:43;100350.66;;;6.90;69.43
45323;BME280;31382;50.200;8.674;2022-12-07T08:15:47;100344.63;;;6.88;69.23
45323;BME280;31382;50.200;8.674;2022-12-07T08:20:49;100345.94;;;6.84;69.87
45323;BME280;31382;50.200;8.674;2022-12-07T08:25:50;100351.97;;;6.86;70.36
45323;BME280;31382;50.200;8.674;2022-12-07T08:30:51;100348.53;;;6.94;69.76
45323;BME280;31382;50.200;8.674;2022-12-07T08:35:53;100346.16;;;6.91;69.79
45323;BME280;31382;50.200;8.674;2022-12-07T08:40:58;100350.53;;;6.92;69.91
45323;BME280;31382;50.200;8.674;2022-12-07T08:46:07;100354.03;;;6.92;69.15
45323;BME280;31382;50.200;8.674;2022-12-07T08:51:10;100357.38;;;6.94;70.00
45323;BME280;31382;50.200;8.674;2022-12-07T08:56:12;100363.59;;;7.13;69.44
45323;BME280;31382;50.200;8.674;2022-12-07T09:01:13;100363.28;;;7.16;69.29
45323;BME280;31382;50.200;8.674;2022-12-07T09:06:15;100354.50;;;7.06;69.76
45323;BME280;31382;50.200;8.674;2022-12-07T09:11:16;100360.53;;;7.08;69.06
45323;BME280;31382;50.200;8.674;2022-12-07T09:16:18;100362.13;;;7.01;69.50
45323;BME280;31382;50.200;8.674;2022-12-07T09:21:19;100361.69;;;7.05;69.80
45323;BME280;31382;50.200;8.674;2022-12-07T09:26:21;100378.09;;;7.10;69.00
45323;BME280;31382;50.200;8.674;2022-12-07T09:31:22;100380.69;;;7.20;69.45
45323;BME280;31382;50.200;8.674;2022-12-07T09:36:26;100375.56;;;7.27;69.11
45323;BME280;31382;50.200;8.674;2022-12-07T09:41:29;100370.03;;;7.46;69.07
45323;BME280;31382;50.200;8.674;2022-12-07T09:46:37;100372.94;;;7.53;68.28
45323;BME280;31382;50.200;8.674;2022-12-07T09:51:40;100369.59;;;7.51;68.04
45323;BME280;31382;50.200;8.674;2022-12-07T09:56:42;100366.91;;;7.77;67.68
45323;BME280;31382;50.200;8.674;2022-12-07T10:01:48;100359.03;;;8.02;66.92
45323;BME280;31382;50.200;8.674;2022-12-07T10:06:50;100369.47;;;8.13;66.92
45323;BME280;31382;50.200;8.674;2022-12-07T10:12:07;100356.78;;;7.89;65.62
45323;BME280;31382;50.200;8.674;2022-12-07T10:17:37;100357.16;;;7.94;64.01
45323;BME280;31382;50.200;8.674;2022-12-07T10:23:01;100349.41;;;7.83;63.79
45323;BME280;31382;50.200;8.674;2022-12-07T10:28:12;100346.00;;;8.07;63.46
45323;BME280;31382;50.200;8.674;2022-12-07T10:33:38;100344.16;;;8.07;63.22
45323;BME280;31382;50.200;8.674;2022-12-07T10:38:44;100345.72;;;8.18;63.26
45323;BME280;31382;50.200;8.674;2022-12-07T10:43:54;100336.91;;;8.26;62.51
45323;BME280;31382;50.200;8.674;2022-12-07T10:49:10;100331.84;;;8.23;61.63
45323;BME280;31382;50.200;8.674;2022-12-07T10:59:42;100322.50;;;8.27;60.26
45323;BME280;31382;50.200;8.674;2022-12-07T11:04:55;100321.59;;;8.44;59.48
45323;BME280;31382;50.200;8.674;2022-12-07T11:10:08;100319.41;;;8.48;59.23
45323;BME280;31382;50.200;8.674;2022-12-07T11:25:32;100296.75;;;8.34;59.24
45323;BME280;31382;50.200;8.674;2022-12-07T11:41:04;100282.06;;;8.46;58.96
45323;BME280;31382;50.200;8.674;2022-12-07T11:46:17;100265.97;;;8.38;59.29
45323;BME280;31382;50.200;8.674;2022-12-07T11:51:20;100262.44;;;8.38;59.09
45323;BME280;31382;50.200;8.674;2022-12-07T11:56:26;100263.00;;;8.49;59.71
45323;BME280;31382;50.200;8.674;2022-12-07T12:06:34;100248.75;;;8.49;58.41
45323;BME280;31382;50.200;8.674;2022-12-07T12:17:01;100247.47;;;8.78;58.08
45323;BME280;31382;50.200;8.674;2022-12-07T12:22:14;100229.22;;;8.81;57.81
45323;BME280;31382;50.200;8.674;2022-12-07T12:27:35;100239.25;;;8.79;57.88
45323;BME280;31382;50.200;8.674;2022-12-07T12:32:40;100236.22;;;8.90;57.62
45323;BME280;31382;50.200;8.674;2022-12-07T12:37:43;100236.91;;;8.68;58.81
45323;BME280;31382;50.200;8.674;2022-12-07T12:42:52;100242.25;;;8.51;59.19
45323;BME280;31382;50.200;8.674;2022-12-07T12:48:04;100252.66;;;8.12;61.25
45323;BME280;31382;50.200;8.674;2022-12-07T12:53:13;100234.69;;;7.53;62.66
45323;BME280;31382;50.200;8.674;2022-12-07T13:03:37;100238.47;;;7.17;64.38
45323;BME280;31382;50.200;8.674;2022-12-07T13:08:41;100226.69;;;7.01;64.67
45323;BME280;31382;50.200;8.674;2022-12-07T13:13:42;100217.13;;;6.99;64.35
45323;BME280;31382;50.200;8.674;2022-12-07T13:18:44;100219.84;;;7.07;64.08
45323;BME280;31382;50.200;8.674;2022-12-07T13:28:52;100222.88;;;7.38;64.38
45323;BME280;31382;50.200;8.674;2022-12-07T13:34:37;100221.34;;;7.62;63.52
45323;BME280;31382;50.200;8.674;2022-12-07T13:39:59;100217.81;;;7.53;63.72
45323;BME280;31382;50.200;8.674;2022-12-07T13:45:27;100211.50;;;7.62;63.79
45323;BME280;31382;50.200;8.674;2022-12-07T13:50:56;100210.47;;;7.55;63.27
45323;BME280;31382;50.200;8.674;2022-12-07T13:55:58;100215.47;;;7.58;64.04
45323;BME280;31382;50.200;8.674;2022-12-07T14:01:00;100217.66;;;7.54;63.31
45323;BME280;31382;50.200;8.674;2022-12-07T14:06:12;100224.44;;;7.41;63.69
45323;BME280;31382;50.200;8.674;2022-12-07T14:11:19;100213.94;;;7.47;63.54
45323;BME280;31382;50.200;8.674;2022-12-07T14:16:24;100211.75;;;7.43;63.57
45323;BME280;31382;50.200;8.674;2022-12-07T14:21:32;100210.56;;;7.45;63.17
45323;BME280;31382;50.200;8.674;2022-12-07T14:26:34;100205.78;;;7.57;63.21
45323;BME280;31382;50.200;8.674;2022-12-07T14:31:36;100207.81;;;7.63;63.63
45323;BME280;31382;50.200;8.674;2022-12-07T14:36:37;100206.47;;;7.59;63.38
45323;BME280;31382;50.200;8.674;2022-12-07T14:41:38;100205.41;;;7.52;63.16
45323;BME280;31382;50.200;8.674;2022-12-07T14:46:52;100188.84;;;7.48;62.83
45323;BME280;31382;50.200;8.674;2022-12-07T14:52:17;100191.00;;;7.37;63.27
45323;BME280;31382;50.200;8.674;2022-12-07T14:57:39;100191.81;;;7.37;63.21
45323;BME280;31382;50.200;8.674;2022-12-07T15:02:41;100195.59;;;7.26;62.82
45323;BME280;31382;50.200;8.674;2022-12-07T15:07:43;100188.53;;;7.17;64.00
45323;BME280;31382;50.200;8.674;2022-12-07T15:12:44;100181.19;;;7.19;63.14
45323;BME280;31382;50.200;8.674;2022-12-07T15:17:46;100178.34;;;7.21;63.47
45323;BME280;31382;50.200;8.674;2022-12-07T15:22:47;100181.59;;;7.32;63.66
45323;BME280;31382;50.200;8.674;2022-12-07T15:27:48;100182.13;;;7.44;62.40
45323;BME280;31382;50.200;8.674;2022-12-07T15:32:53;100187.50;;;7.44;62.58
45323;BME280;31382;50.200;8.674;2022-12-07T15:37:55;100196.78;;;7.32;63.37
45323;BME280;31382;50.200;8.674;2022-12-07T15:42:57;100185.22;;;7.23;63.41
45323;BME280;31382;50.200;8.674;2022-12-07T15:47:58;100183.75;;;7.29;63.67
45323;BME280;31382;50.200;8.674;2022-12-07T15:53:19;100176.38;;;7.23;63.89
45323;BME280;31382;50.200;8.674;2022-12-07T15:58:21;100176.88;;;7.26;64.37
45323;BME280;31382;50.200;8.674;2022-12-07T16:03:22;100168.03;;;7.26;64.75
45323;BME280;31382;50.200;8.674;2022-12-07T16:08:24;100162.88;;;7.32;64.99
45323;BME280;31382;50.200;8.674;2022-12-07T16:13:25;100155.13;;;7.21;64.68
45323;BME280;31382;50.200;8.674;2022-12-07T16:18:26;100152.63;;;7.20;64.94
45323;BME280;31382;50.200;8.674;2022-12-07T16:23:28;100144.47;;;7.29;65.34
45323;BME280;31382;50.200;8.674;2022-12-07T16:28:30;100140.13;;;7.28;65.88
45323;BME280;31382;50.200;8.674;2022-12-07T16:33:31;100135.28;;;7.32;65.01
45323;BME280;31382;50.200;8.674;2022-12-07T16:38:33;100139.09;;;7.21;65.80
45323;BME280;31382;50.200;8.674;2022-12-07T16:43:35;100143.13;;;7.25;65.20
45323;BME280;31382;50.200;8.674;2022-12-07T16:48:38;100131.31;;;7.36;64.84
45323;BME280;31382;50.200;8.674;2022-12-07T16:53:41;100129.50;;;7.37;65.52
45323;BME280;31382;50.200;8.674;2022-12-07T16:58:43;100123.44;;;7.34;65.49
45323;BME280;31382;50.200;8.674;2022-12-07T17:03:46;100121.09;;;7.31;65.29
45323;BME280;31382;50.200;8.674;2022-12-07T17:08:48;100120.72;;;7.26;65.54
45323;BME280;31382;50.200;8.674;2022-12-07T17:13:50;100109.88;;;7.28;65.73
45323;BME280;31382;50.200;8.674;2022-12-07T17:19:12;100115.91;;;7.30;66.31
45323;BME280;31382;50.200;8.674;2022-12-07T17:24:16;100110.22;;;7.25;66.31
45323;BME280;31382;50.200;8.674;2022-12-07T17:29:18;100117.50;;;7.14;66.56
45323;BME280;31382;50.200;8.674;2022-12-07T17:34:19;100118.13;;;7.08;66.33
45323;BME280;31382;50.200;8.674;2022-12-07T17:39:21;100114.53;;;7.18;65.88
45323;BME280;31382;50.200;8.674;2022-12-07T17:44:23;100114.78;;;7.06;65.73
45323;BME280;31382;50.200;8.674;2022-12-07T17:49:25;100105.47;;;6.84;66.31
45323;BME280;31382;50.200;8.674;2022-12-07T17:54:28;100104.84;;;6.90;66.49
45323;BME280;31382;50.200;8.674;2022-12-07T17:59:30;100107.28;;;6.75;66.48
45323;BME280;31382;50.200;8.674;2022-12-07T18:04:32;100108.75;;;6.70;66.66
45323;BME280;31382;50.200;8.674;2022-12-07T18:09:34;100102.66;;;6.60;67.06
45323;BME280;31382;50.200;8.674;2022-12-07T18:14:35;100102.19;;;6.64;66.52
45323;BME280;31382;50.200;8.674;2022-12-07T18:19:37;100093.53;;;6.70;66.53
45323;BME280;31382;50.200;8.674;2022-12-07T18:24:38;100086.59;;;6.78;66.63
45323;BME280;31382;50.200;8.674;2022-12-07T18:29:39;100087.22;;;6.71;66.31
45323;BME280;31382;50.200;8.674;2022-12-07T18:34:41;100076.09;;;6.84;66.34
45323;BME280;31382;50.200;8.674;2022-12-07T18:39:42;100073.44;;;6.84;66.36
45323;BME280;31382;50.200;8.674;2022-12-07T18:44:44;100076.34;;;6.99;66.18
45323;BME280;31382;50.200;8.674;2022-12-07T18:49:45;100068.16;;;7.01;65.53
45323;BME280;31382;50.200;8.674;2022-12-07T18:54:46;100060.69;;;7.12;65.45
45323;BME280;31382;50.200;8.674;2022-12-07T18:59:48;100059.25;;;7.26;65.45
45323;BME280;31382;50.200;8.674;2022-12-07T19:04:50;100059.75;;;7.30;65.05
45323;BME280;31382;50.200;8.674;2022-12-07T19:09:51;100062.25;;;7.23;65.17
45323;BME280;31382;50.200;8.674;2022-12-07T19:14:53;100063.56;;;7.11;65.75
45323;BME280;31382;50.200;8.674;2022-12-07T19:19:55;100058.34;;;7.09;66.17
45323;BME280;31382;50.200;8.674;2022-12-07T19:24:57;100058.63;;;6.98;66.31
45323;BME280;31382;50.200;8.674;2022-12-07T19:29:58;100061.31;;;6.98;66.54
45323;BME280;31382;50.200;8.674;2022-12-07T19:35:00;100050.31;;;7.01;65.92
45323;BME280;31382;50.200;8.674;2022-12-07T19:40:02;100053.97;;;7.00;66.03
45323;BME280;31382;50.200;8.674;2022-12-07T19:45:04;100053.16;;;7.08;66.08
45323;BME280;31382;50.200;8.674;2022-12-07T19:50:07;100047.66;;;7.09;65.13
45323;BME280;31382;50.200;8.674;2022-12-07T19:55:08;100048.69;;;7.17;65.61
45323;BME280;31382;50.200;8.674;2022-12-07T20:00:10;100045.19;;;7.16;65.50
45323;BME280;31382;50.200;8.674;2022-12-07T20:05:11;100035.97;;;7.10;65.98
45323;BME280;31382;50.200;8.674;2022-12-07T20:10:13;100028.59;;;7.04;65.88
45323;BME280;31382;50.200;8.674;2022-12-07T20:15:14;100028.25;;;6.99;65.70
45323;BME280;31382;50.200;8.674;2022-12-07T20:20:16;100033.78;;;7.06;66.57
45323;BME280;31382;50.200;8.674;2022-12-07T20:25:17;100023.09;;;7.06;66.07
45323;BME280;31382;50.200;8.674;2022-12-07T20:30:20;100022.25;;;7.05;66.39
45323;BME280;31382;50.200;8.674;2022-12-07T20:35:21;100026.94;;;7.03;65.99
45323;BME280;31382;50.200;8.674;2022-12-07T20:40:22;100019.72;;;6.95;66.46
45323;BME280;31382;50.200;8.674;2022-12-07T20:45:24;100014.03;;;6.99;66.33
45323;BME280;31382;50.200;8.674;2022-12-07T20:50:25;100010.72;;;7.05;66.42
45323;BME280;31382;50.200;8.674;2022-12-07T20:55:27;99998.88;;;6.99;66.32
45323;BME280;31382;50.200;8.674;2022-12-07T21:00:28;100005.88;;;7.00;66.20
45323;BME280;31382;50.200;8.674;2022-12-07T21:05:30;99997.03;;;7.00;66.44
45323;BME280;31382;50.200;8.674;2022-12-07T21:10:31;99988.84;;;7.01;66.43
45323;BME280;31382;50.200;8.674;2022-12-07T21:15:33;99992.69;;;7.07;66.08
45323;BME280;31382;50.200;8.674;2022-12-07T21:20:34;99985.28;;;6.92;67.13
45323;BME280;31382;50.200;8.674;2022-12-07T21:25:36;99987.41;;;6.81;66.89
45323;BME280;31382;50.200;8.674;2022-12-07T21:30:37;99980.59;;;6.86;66.78
45323;BME280;31382;50.200;8.674;2022-12-07T21:35:59;99981.25;;;6.80;67.14
45323;BME280;31382;50.200;8.674;2022-12-07T21:41:17;99984.88;;;6.71;67.20
45323;BME280;31382;50.200;8.674;2022-12-07T21:46:20;99978.44;;;6.55;68.13
45323;BME280;31382;50.200;8.674;2022-12-07T21:51:23;99978.00;;;6.60;68.39
45323;BME280;31382;50.200;8.674;2022-12-07T21:56:28;99972.66;;;6.60;68.18
45323;BME280;31382;50.200;8.674;2022-12-07T22:01:31;99965.72;;;6.49;68.24
45323;BME280;31382;50.200;8.674;2022-12-07T22:06:36;99960.38;;;6.49;67.52
45323;BME280;31382;50.200;8.674;2022-12-07T22:11:38;99955.84;;;6.42;67.82
45323;BME280;31382;50.200;8.674;2022-12-07T22:16:39;99956.03;;;6.40;68.18
45323;BME280;31382;50.200;8.674;2022-12-07T22:21:40;99961.81;;;6.35;68.06
45323;BME280;31382;50.200;8.674;2022-12-07T22:26:42;99955.66;;;6.35;68.12
45323;BME280;31382;50.200;8.674;2022-12-07T22:31:44;99959.22;;;6.44;67.61
45323;BME280;31382;50.200;8.674;2022-12-07T22:36:53;99952.38;;;6.49;67.34
45323;BME280;31382;50.200;8.674;2022-12-07T22:41:54;99951.56;;;6.49;67.28
45323;BME280;31382;50.200;8.674;2022-12-07T22:46:56;99953.34;;;6.40;68.14
45323;BME280;31382;50.200;8.674;2022-12-07T22:51:57;99940.81;;;6.32;67.71
45323;BME280;31382;50.200;8.674;2022-12-07T22:56:59;99943.63;;;6.31;68.41
45323;BME280;31382;50.200;8.674;2022-12-07T23:02:00;99938.09;;;6.24;67.98
45323;BME280;31382;50.200;8.674;2022-12-07T23:07:01;99929.91;;;6.26;68.59
45323;BME280;31382;50.200;8.674;2022-12-07T23:12:03;99930.91;;;6.25;67.95
45323;BME280;31382;50.200;8.674;2022-12-07T23:17:23;99929.41;;;6.22;68.33
45323;BME280;31382;50.200;8.674;2022-12-07T23:22:25;99914.06;;;6.24;68.21
45323;BME280;31382;50.200;8.674;2022-12-07T23:27:26;99915.72;;;6.25;68.43
45323;BME280;31382;50.200;8.674;2022-12-07T23:32:27;99924.09;;;6.30;67.93
45323;BME280;31382;50.200;8.674;2022-12-07T23:37:29;99918.91;;;6.29;68.22
45323;BME280;31382;50.200;8.674;2022-12-07T23:42:32;99912.22;;;6.25;68.42
45323;BME280;31382;50.200;8.674;2022-12-07T23:47:33;99901.13;;;6.11;68.12
45323;BME280;31382;50.200;8.674;2022-12-07T23:52:34;99899.09;;;6.05;68.42
45323;BME280;31382;50.200;8.674;2022-12-07T23:57:36;99895.09;;;6.01;68.71
